Weather observations for the past three days for
Clinton, MO
Imperial (Metric)
Date Time (cdt) Wind (mph) Vis. (mi.) Weather Sky Cond. Temperature (ºF) Relative Humidity Wind Chill (°F) Heat Index (°F) Pressure Precipitation (in)
Air Dwpt 6 hour altimeter (in) sea level (mb) 1 hr 3 hr 6 hr
Max. Min.
03 16:55 SE 5 G 17 10.00 Fair CLR 98.6 64.4 33% 101 29.87 0.0
03 16:35 S 8 G 16 10.00 Fair CLR 100.4 64.4 31% 104 29.87 0.0
03 16:15 S 8 G 15 10.00 Fair CLR 98.6 64.4 33% 101 29.88 0.0
03 15:55 SW 8 G 14 0.00 Fair CLR 100.4 64.4 31% 104 29.88 0.0
03 15:35 S 7 G 13 10.00 Fair CLR 98.6 64.4 33% 101 29.88 0.0
03 15:15 S 8 10.00 A Few Clouds FEW070 98.6 66.2 35% 103 29.89 0.0
03 14:55 SW 10 10.00 A Few Clouds FEW070 98.6 66.2 35% 103 29.9 0.0
03 14:35 Calm 10.00 Fair CLR 98.6 66.2 35% 103 29.9 0.0
03 14:15 SW 10 G 17 10.00 Fair CLR 98.6 66.2 35% 103 29.91 0.0
03 13:55 S 12 10.00 Fair CLR 98.6 66.2 35% 103 29.92 0.0
03 13:35 SW 13 10.00 Fair CLR 96.8 66.2 37% 100 29.92 0.0
03 13:15 S 9 G 17 10.00 Fair CLR 96.8 66.2 37% 100 29.93 0.0
03 12:55 SW 8 G 15 10.00 Fair CLR 95 68 41% 100 29.94 0.0
03 12:35 SW 9 10.00 Fair CLR 95 68 41% 100 29.94 0.0
03 12:15 SW 12 10.00 Fair CLR 95 68 41% 100 29.95 0.0
03 11:55 S 10 10.00 Fair CLR 95 68 41% 100 29.96 0.0
03 11:35 S 9 G 17 10.00 Fair CLR 93.2 68 44% 98 29.97 0.0
03 11:15 SW 10 10.00 Fair CLR 91.4 68 46% 96 29.97 0.0
03 10:55 S 12 10.00 Fair CLR 91.4 68 46% 96 29.98 0.0
03 10:35 S 9 G 15 10.00 Fair CLR 91.4 69.8 49% 97 29.98 0.0
03 10:15 S 8 G 14 10.00 Fair CLR 89.6 69.8 52% 95 29.98 0.0
03 09:55 S 9 10.00 Fair CLR 87.8 69.8 55% 93 29.97 0.0
03 09:35 S 10 10.00 Fair CLR 87.8 69.8 55% 93 29.98 0.0
03 09:15 S 12 10.00 Fair CLR 86 69.8 59% 91 29.98 0.0
03 08:55 S 9 10.00 Fair CLR 84.2 69.8 62% 88 29.98 0.0
03 08:35 S 10 10.00 Fair CLR 84.2 69.8 62% 88 29.98 0.0
03 08:15 S 7 10.00 Fair CLR 82.4 69.8 66% 86 29.98 0.0
03 07:55 S 7 10.00 Fair CLR 80.6 69.8 70% 84 29.98 0.0
03 07:35 S 7 10.00 Fair CLR 78.8 69.8 74% 81 29.98 0.0
03 07:15 S 5 10.00 Fair CLR 78.8 69.8 74% 81 29.97 0.0
03 06:55 S 5 10.00 Fair CLR 78.8 68 70% 81 29.97 0.0
03 06:35 S 5 10.00 Fair CLR 78.8 68 70% 81 29.97 0.0
03 06:15 S 6 10.00 Fair CLR 78.8 68 70% 81 29.96 0.0
03 05:55 S 7 10.00 Fair CLR 78.8 68 70% 81 29.96 0.0
03 05:35 S 7 10.00 Fair CLR 78.8 68 70% 81 29.95 0.0
03 05:15 S 6 10.00 Fair CLR 78.8 68 70% 81 29.95 0.0
03 04:55 S 6 10.00 Fair CLR 78.8 68 70% 81 29.95 0.0
03 04:35 S 7 10.00 Fair CLR 78.8 68 70% 81 29.95 0.0
03 04:15 S 6 10.00 Fair CLR 77 68 74% 79 29.95 0.0
03 03:55 S 6 10.00 Fair CLR 78.8 68 70% 81 29.95 0.0
03 03:35 S 5 10.00 Fair CLR 78.8 68 70% 81 29.95 0.0
03 03:15 S 5 10.00 Fair CLR 78.8 66.2 65% 81 29.94 0.0
03 02:55 S 6 10.00 Fair CLR 78.8 66.2 65% 81 29.94 0.0
03 02:35 S 6 10.00 Fair CLR 80.6 66.2 62% 83 29.94 0.0
03 02:15 S 6 10.00 Fair CLR 80.6 66.2 62% 83 29.94 0.0
03 01:55 S 6 10.00 Fair CLR 80.6 66.2 62% 83 29.94 0.0
03 01:35 S 7 10.00 Fair CLR 82.4 66.2 58% 85 29.94 0.0
03 01:15 S 7 10.00 Fair CLR 80.6 66.2 62% 83 29.93 0.0
03 00:55 S 6 10.00 Fair CLR 82.4 66.2 58% 85 29.94 0.0
03 00:35 S 7 9.00 Fair CLR 80.6 66.2 62% 83 29.94 0.0
03 00:15 S 7 10.00 Fair CLR 80.6 66.2 62% 83 29.93 0.0
02 23:55 S 7 10.00 Fair CLR 80.6 66.2 62% 83 29.93 0.0
02 23:35 S 5 10.00 Fair CLR 82.4 66.2 58% 85 29.92 0.0
02 23:15 S 5 10.00 Fair CLR 84.2 66.2 55% 87 29.93 0.0
02 22:55 Calm 10.00 Fair CLR 84.2 66.2 55% 87 29.93 0.0
02 22:35 Calm 10.00 Fair CLR 84.2 66.2 55% 87 29.93 0.0
02 22:15 Calm 10.00 Fair CLR 82.4 66.2 58% 85 29.93 0.0
02 21:55 Calm 10.00 Fair CLR 82.4 66.2 58% 85 29.93 0.0
02 21:35 Calm 10.00 Fair CLR 82.4 68 62% 85 29.92 0.0
02 21:15 Calm 10.00 Fair CLR 82.4 68 62% 85 29.92 0.0
02 20:55 Calm 10.00 Fair CLR 86 68 55% 89 29.91 0.0
02 20:35 Calm 10.00 Fair CLR 84.2 68 58% 87 29.91 0.0
02 20:15 Calm 10.00 Fair CLR 84.2 69.8 62% 88 29.9 0.0
02 19:55 Calm 10.00 Fair CLR 89.6 66.2 46% 92 29.9 0.0
02 19:35 Calm 10.00 Fair CLR 91.4 66.2 44% 94 29.9 0.0
02 19:15 S 5 10.00 Fair CLR 95 66.2 39% 98 29.9 0.0
02 18:55 Calm 10.00 Fair CLR 95 66.2 39% 98 29.9 0.0
02 18:35 Calm 10.00 Fair CLR 96.8 66.2 37% 100 29.9 0.0
02 18:15 Calm 10.00 Fair CLR 98.6 66.2 35% 103 29.9 0.0
02 17:55 SW 7 10.00 Fair CLR 98.6 64.4 33% 101 29.9 0.0
02 17:35 S 5 10.00 Fair CLR 98.6 64.4 33% 101 29.91 0.0
02 17:15 S 7 10.00 Fair CLR 98.6 64.4 33% 101 29.91 0.0
02 16:55 S 8 10.00 Fair CLR 100.4 64.4 31% 104 29.91 0.0
02 16:35 S 6 10.00 Fair CLR 100.4 64.4 31% 104 29.92 0.0
02 16:15 SW 9 10.00 Fair CLR 100.4 64.4 31% 104 29.92 0.0
02 15:55 W 9 10.00 Fair CLR 100.4 66.2 33% 105 29.93 0.0
02 15:35 SW 9 10.00 Fair CLR 100.4 66.2 33% 105 29.93 0.0
02 15:15 SW 8 10.00 Fair CLR 100.4 66.2 33% 105 29.94 0.0
02 14:55 S 8 10.00 Fair CLR 100.4 66.2 33% 105 29.95 0.0
02 14:35 W 9 10.00 Fair CLR 96.8 68 39% 102 29.96 0.0
02 14:15 SW 7 G 15 10.00 Fair CLR 98.6 68 37% 104 29.96 0.0
02 13:55 SW 7 G 14 10.00 Fair CLR 98.6 66.2 35% 103 29.97 0.0
02 13:35 SW 9 10.00 Fair CLR 98.6 68 37% 104 29.98 0.0
02 13:15 SW 10 10.00 Fair CLR 98.6 68 37% 104 29.99 0.0
02 12:55 S 12 10.00 Fair CLR 98.6 68 37% 104 30 0.0
02 12:35 W 9 G 16 10.00 Fair CLR 96.8 69.8 42% 103 30.01 0.0
02 12:15 SW 9 10.00 Fair CLR 96.8 69.8 42% 103 30.01 0.0
02 11:55 SW 10 10.00 Fair CLR 95 69.8 44% 101 30.02 0.0
02 11:35 SW 12 10.00 Fair CLR 95 69.8 44% 101 30.02 0.0
02 11:15 SW 13 10.00 Fair CLR 93.2 68 44% 98 30.03 0.0
02 10:55 SW 10 G 17 10.00 Fair CLR 93.2 68 44% 98 30.03 0.0
02 10:35 SW 13 10.00 Fair CLR 91.4 68 46% 96 30.03 0.0
02 10:15 SW 12 G 17 10.00 Fair CLR 89.6 69.8 52% 95 30.03 0.0
02 09:55 SW 13 G 21 10.00 Fair CLR 89.6 68 49% 93 30.03 0.0
02 09:35 SW 13 10.00 Fair CLR 87.8 69.8 55% 93 30.02 0.0
02 09:15 SW 7 10.00 Fair CLR 86 69.8 59% 91 30.02 0.0
02 08:55 S 9 G 15 10.00 Fair CLR 84.2 69.8 62% 88 30.03 0.0
02 08:35 S 9 10.00 Fair CLR 82.4 69.8 66% 86 30.03 0.0
02 08:15 S 8 10.00 Fair CLR 80.6 69.8 70% 84 30.03 0.0
02 07:55 S 5 10.00 Fair CLR 80.6 68 66% 83 30.02 0.0
02 07:35 S 6 10.00 Fair CLR 78.8 68 70% 81 30.02 0.0
02 07:15 S 6 10.00 Fair CLR 77 68 74% 79 30.02 0.0
02 06:55 S 6 10.00 Fair CLR 77 68 74% 79 30.01 0.0
02 06:35 S 6 10.00 Fair CLR 77 68 74% 79 30 0.0
02 06:15 Calm 10.00 Fair CLR 77 68 74% 79 30 0.0
02 05:55 Calm 10.00 Fair CLR 77 68 74% 79 29.99 0.0
02 05:35 S 3 10.00 Fair CLR 77 68 74% 79 29.99 0.0
02 05:15 S 6 10.00 Fair CLR 77 68 74% 79 29.98 0.0
02 04:55 S 6 10.00 Fair CLR 77 68 74% 79 29.98 0.0
02 04:35 Calm 10.00 Fair CLR 78.8 68 70% 81 29.99 0.0
02 04:15 S 5 10.00 Fair CLR 78.8 68 70% 81 29.98 0.0
02 03:55 Calm 10.00 Fair CLR 78.8 68 70% 81 29.98 0.0
02 03:35 S 6 10.00 Fair CLR 80.6 68 66% 83 29.98 0.0
02 03:15 S 6 10.00 Fair CLR 80.6 66.2 62% 83 29.98 0.0
02 02:55 S 6 10.00 Fair CLR 80.6 66.2 62% 83 29.97 0.0
02 02:35 S 6 10.00 A Few Clouds FEW090 80.6 66.2 62% 83 29.97 0.0
02 02:15 Calm 10.00 Mostly Cloudy BKN090 82.4 66.2 58% 85 29.98 0.0
02 01:55 S 5 10.00 A Few Clouds FEW085 82.4 66.2 58% 85 29.98 0.0
02 01:35 S 6 10.00 Fair CLR 84.2 66.2 55% 87 29.98 0.0
02 01:15 S 8 10.00 A Few Clouds FEW100 82.4 66.2 58% 85 29.97 0.0
02 00:55 S 6 10.00 Mostly Cloudy BKN095 82.4 66.2 58% 85 29.97 0.0
02 00:35 S 5 10.00 Mostly Cloudy BKN085 80.6 68 66% 83 29.97 0.0
02 00:15 Calm 10.00 Fair CLR 82.4 66.2 58% 85 29.97 0.0
01 23:55 Calm 10.00 Fair CLR 82.4 66.2 58% 85 29.97 0.0
01 23:35 S 3 10.00 Fair CLR 80.6 68 66% 83 29.97 0.0
01 23:15 S 3 10.00 Fair CLR 80.6 68 66% 83 29.96 0.0
01 22:55 S 3 10.00 Fair CLR 80.6 66.2 62% 83 29.96 0.0
01 22:35 S 3 10.00 Fair CLR 80.6 68 66% 83 29.96 0.0
01 22:15 S 3 10.00 Fair CLR 77 69.8 79% 79 29.96 0.0
01 21:55 Calm 10.00 A Few Clouds FEW090 78.8 68 70% 81 29.96 0.0
01 21:35 Calm 10.00 Fair CLR 80.6 68 66% 83 29.96 0.0
01 21:15 Calm 10.00 Fair CLR 80.6 68 66% 83 29.95 0.0
01 20:55 Calm 10.00 Fair CLR 80.6 68 66% 83 29.95 0.0
01 20:35 S 3 10.00 Fair CLR 84.2 66.2 55% 87 29.94 0.0
01 20:15 Calm 10.00 Fair CLR 84.2 68 58% 87 29.94 0.0
01 19:55 Calm 10.00 Fair CLR 87.8 68 52% 91 29.93 0.0
01 19:35 Calm 10.00 Fair CLR 89.6 66.2 46% 92 29.93 0.0
01 19:15 S 3 10.00 Fair CLR 93.2 64.4 39% 95 29.94 0.0
01 18:55 S 3 10.00 Fair CLR 95 66.2 39% 98 29.94 0.0
01 18:35 Calm 10.00 Fair CLR 96.8 64.4 34% 99 29.94 0.0
01 18:15 S 5 10.00 A Few Clouds FEW100 96.8 64.4 34% 99 29.95 0.0
01 17:55 S 3 10.00 Partly Cloudy SCT095 98.6 64.4 33% 101 29.95 0.0
01 17:35 Calm 10.00 Mostly Cloudy BKN090 98.6 62.6 31% 100 29.95 0.0
01 17:15 Calm 10.00 Partly Cloudy SCT090 98.6 62.6 31% 100 29.95 0.0
01 16:55 S 3 10.00 A Few Clouds FEW090 96.8 62.6 32% 98 29.95 0.0
01 16:35 S 7 10.00 A Few Clouds FEW085 98.6 62.6 31% 100 29.95 0.0
01 16:15 S 10 10.00 A Few Clouds FEW085 98.6 62.6 31% 100 29.96 0.0
01 15:55 SW 5 10.00 Fair CLR 98.6 60.8 29% 99 29.96 0.0
01 15:35 W 9 10.00 Fair CLR 100.4 62.6 29% 102 29.97 0.0
01 15:15 SW 9 G 16 10.00 Fair CLR 100.4 62.6 29% 102 29.98 0.0
01 14:55 SW 8 10.00 Fair CLR 100.4 60.8 27% 101 29.98 0.0
01 14:35 Vrbl 6 G 12 10.00 Fair CLR 98.6 62.6 31% 100 29.99 0.0
01 14:15 SW 5 10.00 A Few Clouds FEW080 100.4 62.6 29% 102 29.99 0.0
01 13:55 Calm 10.00 Fair CLR 98.6 62.6 31% 100 30 0.0
01 13:35 W 7 10.00 Fair CLR 98.6 64.4 33% 101 30.01 0.0
01 13:15 W 9 G 15 10.00 Fair CLR 98.6 64.4 33% 101 30.01 0.0
01 12:55 S 8 10.00 Fair CLR 98.6 64.4 33% 101 30.02 0.0 0.02
01 12:35 SW 9 10.00 Fair CLR 96.8 66.2 37% 100 30.03 0.0
01 12:15 SW 8 9.00 Fair CLR 96.8 66.2 37% 100 30.03 0.0
01 11:55 SW 7 G 14 9.00 Fair CLR 95 68 41% 100 30.04 0.0
01 11:35 SW 12 9.00 Fair CLR 95 66.2 39% 98 30.05 0.0
01 11:15 SW 13 9.00 Fair CLR 93.2 68 44% 98 30.05 0.0
01 10:55 SW 10 10.00 Fair CLR 91.4 68 46% 96 30.05 0.0
01 10:35 SW 12 G 17 9.00 Fair CLR 91.4 66.2 44% 94 30.05 0.0
01 10:15 SW 12 10.00 Fair CLR 89.6 66.2 46% 92 30.05 0.0
01 09:55 SW 10 9.00 Fair CLR 87.8 66.2 49% 90 30.05 0.0
01 09:35 SW 8 9.00 Fair CLR 86 66.2 52% 88 30.05 0.0
01 09:15 SW 8 10.00 Fair CLR 82.4 66.2 58% 85 30.06 0.0
01 08:55 SW 7 9.00 A Few Clouds FEW095 82.4 66.2 58% 85 30.06 0.0
01 08:35 S 6 10.00 Fair CLR 80.6 66.2 62% 83 30.06 0.0
01 08:15 SW 5 9.00 Fair CLR 77 66.2 69% 79 30.06 0.0
01 07:55 S 3 9.00 A Few Clouds FEW090 77 66.2 69% 79 30.05 0.0
01 07:35 S 5 9.00 Partly Cloudy SCT090 75.2 66.2 74% 77 30.05 0.0
01 07:15 S 5 9.00 A Few Clouds FEW090 75.2 64.4 69% 77 30.04 0.0
01 06:35 S 5 10.00 Fair CLR 75.2 64.4 69% 77 30.02 0.0
01 06:15 S 6 10.00 Fair CLR 75.2 64.4 69% 77 30.02 0.0
01 05:55 S 6 10.00 Fair CLR 75.2 64.4 69% 77 30.01 0.0
01 05:35 S 6 10.00 Fair CLR 77 64.4 65% 79 30.01 0.0
01 05:15 S 5 10.00 Fair CLR 77 64.4 65% 79 30.01 0.0
01 04:55 S 6 10.00 Fair CLR 77 64.4 65% 79 30 0.0
01 04:35 S 6 10.00 Fair CLR 77 64.4 65% 79 30 0.0
01 04:15 S 5 10.00 Fair CLR 78.8 64.4 61% 81 30 0.0
01 03:55 S 5 10.00 Fair CLR 77 64.4 65% 79 30 0.0
01 03:35 S 5 10.00 Fair CLR 78.8 64.4 61% 81 30 0.0
01 03:15 S 6 10.00 Fair CLR 78.8 64.4 61% 81 29.99 0.0
01 02:55 S 6 10.00 Fair CLR 78.8 64.4 61% 81 29.99 0.0
01 02:35 S 5 10.00 Fair CLR 78.8 64.4 61% 81 29.99 0.0
01 02:15 S 6 10.00 Fair CLR 78.8 64.4 61% 81 29.99 0.0
01 01:55 S 6 10.00 Fair CLR 80.6 64.4 58% 82 29.99 0.0
01 01:35 S 7 10.00 Fair CLR 80.6 64.4 58% 82 29.99 0.0
01 01:15 S 7 10.00 Fair CLR 80.6 64.4 58% 82 30 0.0
01 00:55 S 7 10.00 Fair CLR 78.8 64.4 61% 81 30 0.0
01 00:35 S 6 10.00 Fair CLR 80.6 64.4 58% 82 29.99 0.0
01 00:15 S 6 10.00 Fair CLR 78.8 64.4 61% 81 29.99 0.0
31 23:55 S 5 10.00 Fair CLR 80.6 62.6 54% 82 29.98 0.0
31 23:35 S 5 10.00 Fair CLR 78.8 64.4 61% 81 29.98 0.0
31 23:15 S 5 10.00 Fair CLR 78.8 62.6 58% 80 29.98 0.0
31 22:55 SE 5 9.00 Fair CLR 80.6 62.6 54% 82 29.98 0.0
31 22:35 SE 6 8.00 Fair CLR 75.2 64.4 69% 77 29.98 0.0
31 22:15 Calm 9.00 Fair CLR 75.2 66.2 74% 77 29.97 0.0
31 21:55 Calm 10.00 Fair CLR 77 68 74% 79 29.97 0.0
31 21:35 Calm 10.00 Fair CLR 77 66.2 69% 79 29.97 0.0
31 21:15 Calm 9.00 Fair CLR 78.8 66.2 65% 81 29.97 0.0
31 20:55 Calm 10.00 Fair CLR 80.6 64.4 58% 82 29.96 0.0
31 20:35 Calm 10.00 Fair CLR 82.4 64.4 55% 84 29.95 0.0
31 20:15 Calm 9.00 Fair CLR 82.4 64.4 55% 84 29.95 0.0
31 19:55 Calm 9.00 Fair CLR 91.4 62.6 38% 92 29.95 0.0
31 19:35 Calm 10.00 Fair CLR 93.2 60.8 34% 93 29.94 0.0
31 19:15 S 3 10.00 Fair CLR 95 60.8 32% 95 29.94 0.0
31 18:35 SW 5 10.00 Fair CLR 98.6 60.8 29% 99 29.94 0.0
31 18:15 S 8 9.00 Fair CLR 98.6 59 27% 98 29.93 0.0
31 17:55 S 7 10.00 Fair CLR 100.4 59 25% 100 29.93 0.0
31 17:35 S 10 10.00 Fair CLR 100.4 59 25% 100 29.93 0.0
31 17:15 SW 7 G 13 10.00 Fair CLR 100.4 60.8 27% 101 29.94 0.0
Date Time (cdt) Wind (mph) Vis. (mi.) Weather Sky Cond. Air Dwpt Max. Min. Relative Humidity Wind Chill (°F) Heat Index (°F) altimeter (in) sea level (mb) 1 hr 3 hr 6 hr
6 hour
Temperature (ºF) Pressure Precipitation (in)